Time;durP1;ratioP1;P1;durP2;ratioP2;P2;SDS_P1;SDS_P2;PMS_P1;PMS_P2;Temp;Humidity;BMP_temperature;BMP_pressure;BME280_temperature;BME280_humidity;BME280_pressure;Samples;Min_cycle;Max_cycle;Signal;HPM_P1;HPM_P2
2023/04/22 00:01:51;;;;;;;4.70;4.10;;;10.70;99.90;;;;;;5022537;28;20573;-76
2023/04/22 00:04:16;;;;;;;3.60;3.30;;;10.60;99.90;;;;;;5022801;28;20214;-77
2023/04/22 00:06:42;;;;;;;3.87;3.50;;;10.60;99.90;;;;;;5012206;28;20186;-77
2023/04/22 00:09:09;;;;;;;5.73;3.67;;;10.50;99.90;;;;;;5010875;28;20241;-77
2023/04/22 00:11:34;;;;;;;3.77;3.47;;;10.40;99.90;;;;;;5013459;28;20243;-77
2023/04/22 00:14:00;;;;;;;3.53;3.23;;;10.40;99.90;;;;;;5018855;28;20457;-77
2023/04/22 00:16:26;;;;;;;3.33;3.03;;;10.40;99.90;;;;;;5024193;28;20179;-76
2023/04/22 00:18:51;;;;;;;3.57;3.27;;;10.40;99.90;;;;;;5015529;28;20670;-76
2023/04/22 00:21:17;;;;;;;4.00;3.60;;;10.30;99.90;;;;;;5024795;28;20237;-77
2023/04/22 00:23:44;;;;;;;5.93;3.87;;;10.30;99.90;;;;;;5020708;28;20186;-76
2023/04/22 00:26:10;;;;;;;3.80;3.40;;;10.30;99.90;;;;;;5026559;28;20268;-77
2023/04/22 00:28:36;;;;;;;4.40;3.57;;;10.30;99.90;;;;;;5025517;28;20426;-77
2023/04/22 00:31:03;;;;;;;4.13;3.60;;;10.30;99.90;;;;;;5019914;28;20445;-77
2023/04/22 00:33:29;;;;;;;4.97;3.70;;;10.30;99.90;;;;;;5028147;28;20201;-77
2023/04/22 00:35:55;;;;;;;3.70;3.40;;;10.20;99.90;;;;;;5038838;28;20425;-77
2023/04/22 00:38:21;;;;;;;3.90;3.37;;;10.20;99.90;;;;;;5029949;28;20476;-77
2023/04/22 00:40:46;;;;;;;3.60;3.30;;;10.20;99.90;;;;;;5022030;28;20273;-76
2023/04/22 00:43:13;;;;;;;4.27;3.73;;;10.10;99.90;;;;;;5022817;28;20269;-77
2023/04/22 00:45:38;;;;;;;4.20;3.80;;;10.10;99.90;;;;;;5023093;28;20221;-77
2023/04/22 00:48:04;;;;;;;4.00;3.50;;;10.00;99.90;;;;;;5017947;28;20429;-76
2023/04/22 00:50:30;;;;;;;4.77;4.30;;;10.00;99.90;;;;;;5022959;28;20359;-76
2023/04/22 00:52:56;;;;;;;7.83;6.00;;;10.00;99.90;;;;;;5014785;28;20500;-77
2023/04/22 00:55:21;;;;;;;6.83;6.13;;;10.10;99.90;;;;;;5023714;28;20190;-76
2023/04/22 00:57:49;;;;;;;7.73;6.20;;;10.20;99.90;;;;;;5027377;28;20646;-76
2023/04/22 01:00:16;;;;;;;7.87;6.00;;;10.20;99.90;;;;;;5019619;28;21062;-77
2023/04/22 01:02:41;;;;;;;7.80;6.50;;;10.30;99.90;;;;;;5021767;28;20508;-76
2023/04/22 01:05:09;;;;;;;7.67;6.87;;;10.30;99.90;;;;;;5024069;28;20595;-76
2023/04/22 01:07:35;;;;;;;8.10;7.10;;;10.40;99.90;;;;;;5024919;28;20613;-77
2023/04/22 01:10:01;;;;;;;8.97;7.47;;;10.40;99.90;;;;;;5014235;28;20429;-76
2023/04/22 01:12:27;;;;;;;9.30;7.03;;;10.40;99.90;;;;;;5023882;28;20425;-77
2023/04/22 01:14:53;;;;;;;7.80;7.00;;;10.30;99.90;;;;;;5019791;28;20412;-75
2023/04/22 01:17:20;;;;;;;7.53;6.20;;;10.40;99.90;;;;;;5022615;28;20213;-77
2023/04/22 01:19:47;;;;;;;8.63;7.73;;;10.30;99.90;;;;;;5014369;28;20194;-76
2023/04/22 01:22:14;;;;;;;11.30;7.37;;;10.30;99.90;;;;;;5028661;28;20803;-77
2023/04/22 01:24:40;;;;;;;7.87;6.90;;;10.30;99.90;;;;;;5022691;28;20465;-77
2023/04/22 01:27:06;;;;;;;8.00;7.20;;;10.40;99.90;;;;;;5018884;28;20422;-77
2023/04/22 01:29:32;;;;;;;7.30;6.43;;;10.30;99.90;;;;;;5018743;28;20501;-77
2023/04/22 01:31:58;;;;;;;8.43;6.70;;;10.30;99.90;;;;;;5022640;28;20528;-77
2023/04/22 01:34:24;;;;;;;9.87;7.13;;;10.30;99.90;;;;;;5019923;28;20775;-77
2023/04/22 01:36:50;;;;;;;9.67;7.17;;;10.30;99.90;;;;;;5041875;28;20425;-76
2023/04/22 01:39:16;;;;;;;7.80;7.00;;;10.30;99.90;;;;;;5026619;28;20209;-76
2023/04/22 01:41:42;;;;;;;7.73;6.40;;;10.40;99.90;;;;;;5028624;28;20642;-77
2023/04/22 01:44:08;;;;;;;6.50;5.90;;;10.30;99.90;;;;;;5019104;28;20469;-77
2023/04/22 01:46:33;;;;;;;7.00;6.20;;;10.40;99.90;;;;;;5027422;28;20248;-77
2023/04/22 01:48:59;;;;;;;8.13;7.30;;;10.40;99.90;;;;;;5016148;28;20186;-77
2023/04/22 01:51:25;;;;;;;6.47;5.87;;;10.40;99.90;;;;;;5022902;28;20211;-76
2023/04/22 01:53:50;;;;;;;6.80;5.93;;;10.40;99.90;;;;;;5030570;28;20269;-76
2023/04/22 01:56:16;;;;;;;8.07;6.67;;;10.40;99.90;;;;;;5024669;28;20183;-77
2023/04/22 01:58:42;;;;;;;7.13;5.40;;;10.50;99.90;;;;;;5016863;28;20195;-77
2023/04/22 02:01:10;;;;;;;6.07;5.47;;;10.50;99.90;;;;;;5012349;28;20961;-77
2023/04/22 02:03:36;;;;;;;6.23;5.17;;;10.50;99.90;;;;;;5021644;28;20433;-76
2023/04/22 02:06:02;;;;;;;5.80;5.20;;;10.60;99.90;;;;;;5010880;28;20581;-75
2023/04/22 02:08:27;;;;;;;5.80;5.30;;;10.60;99.90;;;;;;5020204;28;20641;-77
2023/04/22 02:10:53;;;;;;;6.60;6.00;;;10.70;99.90;;;;;;5018311;28;20438;-76
2023/04/22 02:13:19;;;;;;;5.93;5.33;;;10.70;99.90;;;;;;5017906;28;20641;-76
2023/04/22 02:15:44;;;;;;;5.47;4.97;;;10.70;99.90;;;;;;5025108;28;20198;-76
2023/04/22 02:18:10;;;;;;;5.53;5.03;;;10.70;99.90;;;;;;5016769;28;20749;-77
2023/04/22 02:20:36;;;;;;;7.37;5.00;;;10.70;99.90;;;;;;5024452;28;20597;-76
2023/04/22 02:23:02;;;;;;;5.40;4.70;;;10.60;99.90;;;;;;5016929;28;20190;-77
2023/04/22 02:25:28;;;;;;;5.20;4.70;;;10.60;99.90;;;;;;5020900;28;20465;-76
2023/04/22 02:27:54;;;;;;;5.70;4.90;;;10.60;99.90;;;;;;5018870;28;20426;-77
2023/04/22 02:30:20;;;;;;;4.90;4.40;;;10.60;99.90;;;;;;5002752;28;20435;-77
2023/04/22 02:32:46;;;;;;;6.53;4.97;;;10.70;99.90;;;;;;5015837;28;20481;-76
2023/04/22 02:35:12;;;;;;;5.27;4.70;;;10.70;99.90;;;;;;5017990;28;20421;-77
2023/04/22 02:37:38;;;;;;;5.60;4.70;;;10.70;99.90;;;;;;5019643;28;20202;-76
2023/04/22 02:40:06;;;;;;;5.17;4.67;;;10.70;99.90;;;;;;5021108;28;20212;-77
2023/04/22 02:42:32;;;;;;;5.23;4.70;;;10.80;99.90;;;;;;5029189;28;20425;-76
2023/04/22 02:44:57;;;;;;;5.40;4.53;;;10.80;99.90;;;;;;5021079;28;20979;-76
2023/04/22 02:47:23;;;;;;;4.60;4.20;;;10.80;99.90;;;;;;5020085;28;20588;-77
2023/04/22 02:49:49;;;;;;;6.40;5.20;;;10.80;99.90;;;;;;5025442;28;20179;-77
2023/04/22 02:52:14;;;;;;;5.27;4.77;;;10.80;99.90;;;;;;5017912;28;20285;-77
2023/04/22 02:54:40;;;;;;;4.87;4.47;;;10.80;99.90;;;;;;5017818;28;20191;-77
2023/04/22 02:57:06;;;;;;;5.07;4.00;;;10.90;99.90;;;;;;5023473;28;20191;-76
2023/04/22 02:59:33;;;;;;;9.10;4.00;;;10.90;99.90;;;;;;5025529;28;20206;-76
2023/04/22 03:01:58;;;;;;;4.80;4.30;;;10.80;99.90;;;;;;5016254;28;20454;-77
2023/04/22 03:04:24;;;;;;;4.57;4.17;;;10.90;99.90;;;;;;5019694;28;20460;-76
2023/04/22 03:06:51;;;;;;;5.20;4.70;;;10.80;99.90;;;;;;5014795;28;20569;-76
2023/04/22 03:09:16;;;;;;;6.10;5.50;;;10.80;99.90;;;;;;5021813;28;20436;-76
2023/04/22 03:11:43;;;;;;;6.40;5.80;;;10.90;99.90;;;;;;5023888;28;20438;-78
2023/04/22 03:14:08;;;;;;;7.00;6.30;;;10.90;99.90;;;;;;5015372;28;20210;-77
2023/04/22 03:16:35;;;;;;;6.40;5.70;;;10.90;99.90;;;;;;5007401;28;20942;-77
2023/04/22 03:19:01;;;;;;;7.17;6.00;;;10.90;99.90;;;;;;4990398;28;20561;-77
2023/04/22 03:21:27;;;;;;;6.57;5.97;;;10.90;99.90;;;;;;4997179;28;20963;-78
2023/04/22 03:23:53;;;;;;;6.53;5.70;;;10.90;99.90;;;;;;5001444;28;20434;-78
2023/04/22 03:26:19;;;;;;;7.93;5.70;;;10.90;99.90;;;;;;5009381;28;20826;-77
2023/04/22 03:28:44;;;;;;;5.50;4.87;;;10.80;99.90;;;;;;5009731;28;20179;-77
2023/04/22 03:31:10;;;;;;;6.30;4.90;;;10.90;99.90;;;;;;5011032;28;20230;-78
2023/04/22 03:33:36;;;;;;;5.17;4.67;;;10.90;99.90;;;;;;5012617;28;20326;-78
2023/04/22 03:36:02;;;;;;;5.13;4.63;;;10.90;99.90;;;;;;5014183;28;20191;-77
2023/04/22 03:38:27;;;;;;;6.10;5.50;;;11.00;99.90;;;;;;5013451;28;20233;-78
2023/04/22 03:40:53;;;;;;;5.40;4.77;;;10.90;99.90;;;;;;5014065;28;20198;-77
2023/04/22 03:43:18;;;;;;;5.47;4.97;;;10.90;99.90;;;;;;5013626;28;20802;-78
2023/04/22 03:45:44;;;;;;;5.67;5.10;;;10.90;99.90;;;;;;5012911;28;20207;-78
2023/04/22 03:48:10;;;;;;;4.60;4.20;;;10.90;99.90;;;;;;5013308;28;20194;-77
2023/04/22 03:50:35;;;;;;;6.87;5.10;;;10.90;99.90;;;;;;5013694;28;20210;-78
2023/04/22 03:53:01;;;;;;;5.90;4.30;;;10.90;99.90;;;;;;5012712;28;20249;-76
2023/04/22 03:55:27;;;;;;;4.67;4.13;;;10.90;99.90;;;;;;5013768;28;20187;-78
2023/04/22 03:57:52;;;;;;;5.53;4.20;;;10.90;99.90;;;;;;5013704;28;20186;-78
2023/04/22 04:00:18;;;;;;;4.77;4.30;;;11.00;99.90;;;;;;5012914;28;20620;-78
2023/04/22 04:02:44;;;;;;;5.30;4.63;;;11.00;99.90;;;;;;5001660;28;20379;-78
2023/04/22 04:05:10;;;;;;;4.50;4.10;;;11.00;99.90;;;;;;5010628;28;20218;-79
2023/04/22 04:07:36;;;;;;;4.73;4.03;;;11.00;99.90;;;;;;5013712;28;20194;-78
2023/04/22 04:10:02;;;;;;;4.30;3.90;;;11.00;99.90;;;;;;5013425;28;20416;-78
2023/04/22 04:12:28;;;;;;;4.40;4.00;;;11.00;99.90;;;;;;5012354;28;20472;-77
2023/04/22 04:14:53;;;;;;;4.47;3.97;;;11.00;99.90;;;;;;5012133;28;20446;-78
2023/04/22 04:17:20;;;;;;;4.67;4.27;;;11.00;99.90;;;;;;5013451;28;20525;-77
2023/04/22 04:19:46;;;;;;;5.17;4.70;;;11.10;99.90;;;;;;5028706;28;20179;-79
2023/04/22 04:22:12;;;;;;;5.27;4.03;;;11.00;99.90;;;;;;5012827;28;20441;-78
2023/04/22 04:24:40;;;;;;;5.03;4.53;;;11.00;99.90;;;;;;5011919;28;20627;-78
2023/04/22 04:27:07;;;;;;;4.70;4.30;;;11.10;99.90;;;;;;5012849;28;20466;-78
2023/04/22 04:29:33;;;;;;;4.77;4.20;;;11.10;99.90;;;;;;4995510;28;21123;-78
2023/04/22 04:31:59;;;;;;;4.50;3.70;;;11.00;99.90;;;;;;4976303;28;20481;-78
2023/04/22 04:34:25;;;;;;;5.07;3.80;;;11.10;99.90;;;;;;4993476;28;20803;-77
2023/04/22 04:36:50;;;;;;;5.00;4.50;;;11.10;99.90;;;;;;4991764;28;20190;-78
2023/04/22 04:39:16;;;;;;;4.83;4.07;;;11.10;99.90;;;;;;4993365;28;20196;-78
2023/04/22 04:41:42;;;;;;;4.17;3.77;;;11.10;99.90;;;;;;5006089;28;20201;-77
2023/04/22 04:44:09;;;;;;;4.10;3.70;;;11.10;99.90;;;;;;5027942;28;20834;-78
2023/04/22 04:46:36;;;;;;;4.43;4.03;;;11.10;99.90;;;;;;4995956;28;20427;-79
2023/04/22 04:49:03;;;;;;;4.07;3.77;;;11.10;99.90;;;;;;5011502;28;20899;-78
2023/04/22 04:51:31;;;;;;;3.60;3.23;;;11.10;99.90;;;;;;5028412;28;20491;-78
2023/04/22 04:53:57;;;;;;;3.80;3.47;;;11.10;99.90;;;;;;5013049;28;20433;-78
2023/04/22 04:56:22;;;;;;;5.13;3.63;;;11.10;99.90;;;;;;5012141;28;20426;-78
2023/04/22 04:58:48;;;;;;;4.27;3.53;;;11.20;99.90;;;;;;5028237;28;20187;-78
2023/04/22 05:01:14;;;;;;;3.50;3.20;;;11.20;99.90;;;;;;5012626;28;20206;-78
2023/04/22 05:03:40;;;;;;;4.10;3.67;;;11.10;99.90;;;;;;5012975;28;20422;-77
2023/04/22 05:06:06;;;;;;;3.23;2.93;;;11.10;99.90;;;;;;5013304;28;20246;-78
2023/04/22 05:08:33;;;;;;;4.63;3.43;;;11.10;99.90;;;;;;5011858;28;20186;-79
2023/04/22 05:10:58;;;;;;;4.40;3.53;;;11.20;99.90;;;;;;5012857;28;20533;-77
2023/04/22 05:13:25;;;;;;;3.60;3.30;;;11.20;99.90;;;;;;5011676;28;20453;-78
2023/04/22 05:15:50;;;;;;;3.03;2.83;;;11.20;99.90;;;;;;5012968;28;20203;-77
2023/04/22 05:18:17;;;;;;;3.80;3.50;;;11.20;99.90;;;;;;5013050;28;20461;-78
2023/04/22 05:20:42;;;;;;;6.40;3.63;;;11.20;99.90;;;;;;5012276;28;20202;-78
2023/04/22 05:23:08;;;;;;;4.10;3.27;;;11.30;99.90;;;;;;5013055;28;20988;-78
2023/04/22 05:25:34;;;;;;;3.20;2.90;;;11.30;99.90;;;;;;5013448;28;20214;-78
2023/04/22 05:27:59;;;;;;;3.77;3.40;;;11.30;99.90;;;;;;5011272;28;20582;-78
2023/04/22 05:30:25;;;;;;;3.70;3.33;;;11.40;99.90;;;;;;5012802;28;20199;-79
2023/04/22 05:32:50;;;;;;;4.10;3.60;;;11.40;99.90;;;;;;5007044;28;20670;-79
2023/04/22 05:35:16;;;;;;;3.87;3.47;;;11.30;99.90;;;;;;4995743;28;20298;-75
2023/04/22 05:37:42;;;;;;;3.87;3.57;;;11.40;99.90;;;;;;4991395;28;20227;-77
2023/04/22 05:40:08;;;;;;;3.70;3.40;;;11.40;99.90;;;;;;4992751;28;20184;-78
2023/04/22 05:42:34;;;;;;;3.50;3.20;;;11.50;99.90;;;;;;5011087;28;20187;-77
2023/04/22 05:44:59;;;;;;;7.23;3.07;;;11.40;99.90;;;;;;4994291;28;20512;-78
2023/04/22 05:47:25;;;;;;;3.37;3.07;;;11.50;99.90;;;;;;5012229;28;20171;-78
2023/04/22 05:49:51;;;;;;;4.00;3.70;;;11.60;99.90;;;;;;5011823;28;20184;-78
2023/04/22 05:52:17;;;;;;;3.93;3.53;;;11.60;99.90;;;;;;5019276;28;20214;-76
2023/04/22 05:54:43;;;;;;;4.43;3.70;;;11.70;99.90;;;;;;4996889;28;20190;-78
2023/04/22 05:57:09;;;;;;;4.20;3.70;;;11.70;99.90;;;;;;4992229;28;20444;-77
2023/04/22 05:59:35;;;;;;;3.50;3.20;;;11.80;99.90;;;;;;4992540;28;20502;-77
2023/04/22 06:02:00;;;;;;;3.30;2.70;;;11.90;99.90;;;;;;4991840;28;20439;-78
2023/04/22 06:04:26;;;;;;;3.73;3.40;;;11.90;99.90;;;;;;4992430;28;20178;-79
2023/04/22 06:06:54;;;;;;;3.50;3.20;;;11.90;99.90;;;;;;5007592;28;20633;-79
2023/04/22 06:09:21;;;;;;;3.57;3.00;;;11.90;99.90;;;;;;5007942;28;20188;-78
2023/04/22 06:11:47;;;;;;;3.50;3.20;;;11.90;99.90;;;;;;4992671;28;20513;-77
2023/04/22 06:14:12;;;;;;;3.27;2.97;;;12.00;99.90;;;;;;4992675;28;20419;-77
2023/04/22 06:16:38;;;;;;;7.23;3.23;;;12.00;99.90;;;;;;4975504;28;20423;-78
2023/04/22 06:19:06;;;;;;;4.40;3.37;;;12.00;99.90;;;;;;4999804;28;20199;-78
2023/04/22 06:21:32;;;;;;;5.10;3.80;;;12.10;99.90;;;;;;5026380;28;20875;-78
2023/04/22 06:23:59;;;;;;;3.60;3.00;;;12.10;99.90;;;;;;5011018;28;20423;-78
2023/04/22 06:26:25;;;;;;;6.63;3.80;;;12.10;99.90;;;;;;5009849;28;20480;-78
2023/04/22 06:28:51;;;;;;;3.93;3.20;;;12.10;99.90;;;;;;5010954;28;20418;-79
2023/04/22 06:31:17;;;;;;;3.70;3.20;;;12.20;99.90;;;;;;5010829;28;20437;-79
2023/04/22 06:33:42;;;;;;;4.17;3.50;;;12.20;99.90;;;;;;5010472;28;20418;-76
2023/04/22 06:36:08;;;;;;;3.50;3.20;;;12.30;99.90;;;;;;5009216;28;20788;-78
2023/04/22 06:38:34;;;;;;;4.30;3.60;;;12.40;99.90;;;;;;5011025;28;20203;-78
2023/04/22 06:41:00;;;;;;;4.27;3.60;;;12.40;99.90;;;;;;5007817;28;20207;-76
2023/04/22 06:43:25;;;;;;;3.33;3.03;;;12.50;99.90;;;;;;5009356;28;20194;-77
2023/04/22 06:45:51;;;;;;;3.77;3.47;;;12.50;99.90;;;;;;5008063;28;20547;-77
2023/04/22 06:48:17;;;;;;;4.50;3.33;;;12.60;99.90;;;;;;5009561;28;20190;-78
2023/04/22 06:50:42;;;;;;;3.73;3.20;;;12.60;99.90;;;;;;5007124;28;20257;-76
2023/04/22 06:53:08;;;;;;;3.67;3.10;;;12.70;99.90;;;;;;5002549;28;20179;-77
2023/04/22 06:55:34;;;;;;;3.23;2.93;;;12.80;99.90;;;;;;5009960;28;20640;-77
2023/04/22 06:58:00;;;;;;;2.87;2.60;;;12.80;99.90;;;;;;4992978;28;20492;-76
2023/04/22 07:00:27;;;;;;;3.50;3.20;;;12.90;99.90;;;;;;5010842;28;20438;-78
2023/04/22 07:02:53;;;;;;;3.83;3.50;;;12.90;99.90;;;;;;5009375;28;20225;-77
2023/04/22 07:05:19;;;;;;;3.30;3.00;;;13.00;99.90;;;;;;5009858;28;20489;-78
2023/04/22 07:07:45;;;;;;;3.13;2.83;;;13.00;99.90;;;;;;5010960;28;20418;-78
2023/04/22 07:10:13;;;;;;;3.60;2.80;;;13.10;99.90;;;;;;5011508;28;20414;-77
2023/04/22 07:12:39;;;;;;;3.37;3.00;;;13.10;99.90;;;;;;5010676;28;20951;-78
2023/04/22 07:15:06;;;;;;;4.80;2.90;;;13.20;99.90;;;;;;5009943;28;20418;-78
2023/04/22 07:17:32;;;;;;;3.73;2.80;;;13.20;99.90;;;;;;4993728;28;20451;-78
2023/04/22 07:19:57;;;;;;;3.67;3.37;;;13.30;99.90;;;;;;5010338;28;20585;-76
2023/04/22 07:22:23;;;;;;;3.13;2.80;;;13.60;99.90;;;;;;5010150;28;20422;-77
2023/04/22 07:24:49;;;;;;;3.03;2.80;;;13.70;99.90;;;;;;5010498;28;20214;-78
2023/04/22 07:27:15;;;;;;;3.43;2.77;;;13.80;99.90;;;;;;4993383;28;20179;-77
2023/04/22 07:29:41;;;;;;;3.70;2.77;;;14.00;99.90;;;;;;5010432;28;20648;-78
2023/04/22 07:32:06;;;;;;;4.13;2.53;;;14.10;99.90;;;;;;5010886;28;20452;-78
2023/04/22 07:34:32;;;;;;;4.30;2.47;;;14.20;99.90;;;;;;5018161;28;20172;-77
2023/04/22 07:36:58;;;;;;;3.43;2.60;;;14.30;99.90;;;;;;5017753;28;20245;-76
2023/04/22 07:39:24;;;;;;;4.70;2.90;;;14.40;99.90;;;;;;5003333;28;20203;-78
2023/04/22 07:41:50;;;;;;;2.67;2.47;;;14.50;99.90;;;;;;5007880;28;20622;-79
2023/04/22 07:44:20;;;;;;;3.07;2.50;;;14.60;99.90;;;;;;5011002;28;20434;-78
2023/04/22 07:46:46;;;;;;;3.67;2.70;;;14.60;99.90;;;;;;5007134;28;20577;-78
2023/04/22 07:49:16;;;;;;;3.07;2.73;;;14.80;99.90;;;;;;5003532;28;20428;-78
2023/04/22 07:51:43;;;;;;;2.93;2.57;;;14.80;99.90;;;;;;5005993;28;20560;-78
2023/04/22 07:54:08;;;;;;;3.13;2.60;;;15.00;99.90;;;;;;5008518;28;20924;-77
2023/04/22 07:56:34;;;;;;;2.90;2.70;;;15.00;99.90;;;;;;5019974;28;20422;-77
2023/04/22 07:59:00;;;;;;;2.83;2.63;;;15.00;99.90;;;;;;5009086;28;20180;-78
2023/04/22 08:01:25;;;;;;;2.70;2.50;;;15.00;99.90;;;;;;5007392;28;20207;-78
2023/04/22 08:03:51;;;;;;;2.90;2.70;;;15.10;99.90;;;;;;5008910;28;20641;-77
2023/04/22 08:06:17;;;;;;;3.03;2.73;;;15.10;99.90;;;;;;4991669;28;20211;-78
2023/04/22 08:08:42;;;;;;;2.67;2.47;;;15.10;99.90;;;;;;5007973;28;20574;-78
2023/04/22 08:11:08;;;;;;;3.70;2.97;;;15.20;99.90;;;;;;5008997;28;20210;-78
2023/04/22 08:13:33;;;;;;;3.10;2.90;;;15.20;99.90;;;;;;5009005;28;20245;-77
2023/04/22 08:16:02;;;;;;;3.00;2.70;;;15.30;99.90;;;;;;5009146;28;20213;-76
2023/04/22 08:18:27;;;;;;;5.13;2.70;;;15.20;99.90;;;;;;5011750;28;20179;-76
2023/04/22 08:20:53;;;;;;;2.70;2.50;;;15.30;99.90;;;;;;5011387;28;20978;-79
2023/04/22 08:23:20;;;;;;;2.70;2.50;;;15.40;99.90;;;;;;5012433;28;20187;-76
2023/04/22 08:25:46;;;;;;;3.17;2.37;;;15.50;99.90;;;;;;5011724;28;20242;-76
2023/04/22 08:28:11;;;;;;;3.83;2.50;;;15.60;99.90;;;;;;5010337;28;20513;-77
2023/04/22 08:30:37;;;;;;;2.70;2.50;;;15.70;99.90;;;;;;5010144;28;20895;-77
2023/04/22 08:33:03;;;;;;;4.70;3.40;;;15.70;99.90;;;;;;5026751;28;20602;-76
2023/04/22 08:35:29;;;;;;;3.03;2.43;;;15.80;99.90;;;;;;5011848;28;20189;-77
2023/04/22 08:37:55;;;;;;;3.27;2.70;;;15.80;99.90;;;;;;5011608;28;20660;-76
2023/04/22 08:40:21;;;;;;;3.87;2.60;;;15.80;99.90;;;;;;5011777;28;20283;-76
2023/04/22 08:42:48;;;;;;;3.07;2.77;;;15.90;99.90;;;;;;5011772;28;20418;-76
2023/04/22 08:45:14;;;;;;;2.60;2.40;;;16.00;99.90;;;;;;5011697;28;20219;-77
2023/04/22 08:47:41;;;;;;;3.27;2.23;;;16.10;99.90;;;;;;5001209;28;20984;-76
2023/04/22 08:50:08;;;;;;;2.87;2.57;;;16.10;99.90;;;;;;5008919;28;20508;-76
2023/04/22 08:52:34;;;;;;;3.10;2.53;;;16.20;99.90;;;;;;5011348;28;20406;-76
2023/04/22 08:55:00;;;;;;;4.30;2.57;;;16.30;99.90;;;;;;5011105;28;20484;-76
2023/04/22 08:57:27;;;;;;;2.70;2.50;;;16.40;99.90;;;;;;5011186;28;20414;-76
2023/04/22 08:59:55;;;;;;;2.70;2.50;;;16.40;99.90;;;;;;5009851;28;20462;-76
2023/04/22 09:02:22;;;;;;;2.30;2.10;;;16.50;99.90;;;;;;5009626;28;20446;-76
2023/04/22 09:04:51;;;;;;;2.87;2.40;;;16.50;99.90;;;;;;5010826;28;20469;-76
2023/04/22 09:07:23;;;;;;;3.63;2.43;;;16.60;99.90;;;;;;5010787;28;20989;-76
2023/04/22 09:09:49;;;;;;;2.60;2.40;;;16.60;99.90;;;;;;5007663;28;20431;-77
2023/04/22 09:12:18;;;;;;;2.53;2.33;;;16.70;99.90;;;;;;5005133;28;20456;-75
2023/04/22 09:14:44;;;;;;;3.40;3.10;;;16.70;99.90;;;;;;5003316;28;20414;-78
2023/04/22 09:17:10;;;;;;;2.73;2.50;;;16.80;99.90;;;;;;5012027;28;20414;-78
2023/04/22 09:19:36;;;;;;;3.50;2.60;;;16.70;99.90;;;;;;5011871;28;20418;-79
2023/04/22 09:22:02;;;;;;;2.87;2.67;;;16.70;99.90;;;;;;5012322;28;20444;-77
2023/04/22 09:24:28;;;;;;;3.00;2.70;;;16.70;99.90;;;;;;5012257;28;20183;-77
2023/04/22 09:26:56;;;;;;;3.03;2.53;;;16.80;99.90;;;;;;5009982;28;20509;-78
2023/04/22 09:29:28;;;;;;;3.13;2.60;;;16.90;99.90;;;;;;4997404;28;20499;-78
2023/04/22 09:31:54;;;;;;;3.00;2.40;;;16.90;99.90;;;;;;4992595;28;20427;-77
2023/04/22 09:34:21;;;;;;;2.80;2.37;;;17.00;99.90;;;;;;4974751;28;20407;-78
2023/04/22 09:36:50;;;;;;;3.20;2.40;;;17.10;99.90;;;;;;4992155;28;20183;-78
2023/04/22 09:39:17;;;;;;;2.60;2.37;;;17.30;99.90;;;;;;4992483;28;20438;-78
2023/04/22 09:41:43;;;;;;;2.67;2.47;;;17.40;99.90;;;;;;5005289;28;20526;-78
2023/04/22 09:44:17;;;;;;;2.50;2.30;;;17.50;99.90;;;;;;5011580;28;20570;-77
2023/04/22 09:46:43;;;;;;;2.70;2.50;;;17.60;99.90;;;;;;5011842;28;20214;-78
2023/04/22 09:49:09;;;;;;;3.20;2.60;;;17.70;99.90;;;;;;5010998;28;20487;-77
2023/04/22 09:51:40;;;;;;;4.37;2.47;;;17.80;99.90;;;;;;5010731;28;20438;-78
2023/04/22 09:54:09;;;;;;;2.33;2.13;;;17.90;99.90;;;;;;5011882;28;20425;-78
2023/04/22 09:56:52;;;;;;;7.37;2.90;;;18.00;99.90;;;;;;5011964;28;20431;-77
2023/04/22 09:59:22;;;;;;;3.93;2.70;;;18.10;99.90;;;;;;5002862;28;20434;-78
2023/04/22 10:01:50;;;;;;;2.97;2.73;;;18.10;99.90;;;;;;5002782;28;20815;-77
2023/04/22 10:04:16;;;;;;;2.60;2.40;;;18.10;99.90;;;;;;5007736;28;20426;-78
2023/04/22 10:06:42;;;;;;;2.80;2.60;;;18.10;99.90;;;;;;5005956;28;20883;-79
2023/04/22 10:09:08;;;;;;;2.90;2.60;;;18.20;99.90;;;;;;5011539;28;20525;-78
2023/04/22 10:11:35;;;;;;;2.60;2.40;;;18.30;99.90;;;;;;5011335;28;20282;-78
2023/04/22 10:14:00;;;;;;;3.70;2.47;;;18.50;99.90;;;;;;5011419;28;20915;-78
2023/04/22 10:16:30;;;;;;;3.30;2.60;;;18.50;99.90;;;;;;5011608;28;20424;-78
2023/04/22 10:18:58;;;;;;;2.60;2.40;;;18.60;99.90;;;;;;5010382;28;20226;-78
2023/04/22 10:21:26;;;;;;;2.20;2.00;;;18.70;99.90;;;;;;5011542;28;20438;-78
2023/04/22 10:23:51;;;;;;;4.87;2.60;;;18.70;99.90;;;;;;4993667;28;20421;-78
2023/04/22 10:26:40;;;;;;;3.03;2.50;;;18.80;99.90;;;;;;5027115;28;20838;-78
2023/04/22 10:29:08;;;;;;;3.70;2.50;;;18.90;99.90;;;;;;5003483;28;20183;-78
2023/04/22 10:31:36;;;;;;;2.90;2.70;;;19.10;99.90;;;;;;4979413;28;20500;-78
2023/04/22 10:34:13;;;;;;;2.70;2.50;;;19.20;99.90;;;;;;5001550;28;20406;-78
2023/04/22 10:37:17;;;;;;;5.03;2.60;;;19.30;99.40;;;;;;5011016;28;20982;-78
2023/04/22 10:40:10;;;;;;;3.50;2.40;;;19.40;99.50;;;;;;5008210;28;20475;-78
2023/04/22 10:42:39;;;;;;;2.80;2.60;;;19.50;98.90;;;;;;4990181;28;20426;-78
2023/04/22 10:45:06;;;;;;;3.20;2.80;;;19.50;97.70;;;;;;4991336;28;20554;-78
2023/04/22 10:47:36;;;;;;;2.40;2.20;;;19.60;98.10;;;;;;5006734;28;20928;-78
2023/04/22 10:50:10;;;;;;;3.57;2.73;;;19.60;98.40;;;;;;4991226;28;20871;-77
2023/04/22 10:52:35;;;;;;;2.73;2.40;;;19.70;98.10;;;;;;4990557;28;20750;-78
2023/04/22 10:55:01;;;;;;;2.80;2.40;;;19.80;98.70;;;;;;4993713;28;20434;-77
2023/04/22 10:57:36;;;;;;;3.43;2.40;;;19.90;98.70;;;;;;5002597;28;20179;-77
2023/04/22 11:00:24;;;;;;;2.63;2.43;;;20.00;97.70;;;;;;5009919;28;20992;-78
2023/04/22 11:03:04;;;;;;;3.30;2.60;;;20.00;98.50;;;;;;5011312;28;20784;-76
2023/04/22 11:05:31;;;;;;;2.60;2.40;;;20.00;98.10;;;;;;5009592;28;20966;-78
2023/04/22 11:08:13;;;;;;;3.00;2.30;;;20.10;98.00;;;;;;5010871;28;20891;-78
2023/04/22 11:10:45;;;;;;;2.87;2.50;;;20.10;98.50;;;;;;5011301;28;20445;-78
2023/04/22 11:13:16;;;;;;;4.10;2.90;;;20.20;98.50;;;;;;5008358;28;20919;-78
2023/04/22 11:15:45;;;;;;;2.40;2.20;;;20.10;98.10;;;;;;5001577;28;20437;-78
2023/04/22 11:18:17;;;;;;;2.93;2.73;;;20.10;97.20;;;;;;5009500;28;20418;-78
2023/04/22 11:20:43;;;;;;;3.57;2.20;;;20.00;97.60;;;;;;5011014;28;20441;-79
2023/04/22 11:23:09;;;;;;;3.97;2.63;;;19.80;98.00;;;;;;5010870;28;20414;-78
2023/04/22 11:25:35;;;;;;;3.10;2.60;;;19.70;97.20;;;;;;5026228;28;20465;-78
2023/04/22 11:28:01;;;;;;;3.17;2.87;;;19.70;97.20;;;;;;5005512;28;20465;-79
2023/04/22 11:30:30;;;;;;;3.17;2.63;;;19.80;97.80;;;;;;4991365;28;20486;-78
2023/04/22 11:32:58;;;;;;;2.63;2.20;;;19.70;97.50;;;;;;5003591;28;20183;-76
2023/04/22 11:35:31;;;;;;;5.83;2.30;;;19.80;97.70;;;;;;5008337;28;20465;-78
2023/04/22 11:37:59;;;;;;;2.50;2.30;;;19.80;97.70;;;;;;4997559;28;20784;-78
2023/04/22 11:40:30;;;;;;;4.50;2.57;;;19.90;98.20;;;;;;5000913;28;20470;-77
2023/04/22 11:42:58;;;;;;;2.53;2.33;;;20.00;98.80;;;;;;5002079;28;20791;-77
2023/04/22 11:45:26;;;;;;;3.37;2.33;;;20.10;98.10;;;;;;5010057;28;20461;-78
2023/04/22 11:47:52;;;;;;;3.23;2.90;;;20.10;97.00;;;;;;5011036;28;20425;-78
2023/04/22 11:50:21;;;;;;;3.03;2.63;;;20.00;97.90;;;;;;4993675;28;20433;-78
2023/04/22 11:52:50;;;;;;;3.70;2.57;;;20.00;98.10;;;;;;5011847;28;20171;-77
2023/04/22 11:55:20;;;;;;;3.50;3.20;;;20.00;98.80;;;;;;5013683;28;20410;-78
2023/04/22 11:57:55;;;;;;;10.20;3.30;;;20.10;98.30;;;;;;5003656;28;20414;-78
2023/04/22 12:00:23;;;;;;;3.40;2.77;;;20.00;98.10;;;;;;5013523;28;20437;-77
2023/04/22 12:03:03;;;;;;;3.03;2.53;;;20.00;98.60;;;;;;5013315;28;20432;-77
2023/04/22 12:05:36;;;;;;;4.87;2.90;;;20.00;98.60;;;;;;5014753;28;20493;-77
2023/04/22 12:08:13;;;;;;;4.03;3.20;;;20.00;98.40;;;;;;5030529;28;20410;-78
2023/04/22 12:10:46;;;;;;;3.50;2.90;;;20.00;98.70;;;;;;5015807;28;20442;-77
2023/04/22 12:13:28;;;;;;;7.07;2.80;;;20.00;98.40;;;;;;5014855;28;20406;-77
2023/04/22 12:16:00;;;;;;;5.40;2.80;;;19.90;98.40;;;;;;5004693;28;20438;-76
2023/04/22 12:18:31;;;;;;;3.10;2.80;;;19.90;98.10;;;;;;5012154;28;20772;-77
2023/04/22 12:21:18;;;;;;;3.70;2.90;;;19.80;98.90;;;;;;5008452;28;20481;-78
2023/04/22 12:23:44;;;;;;;3.00;2.77;;;19.80;99.30;;;;;;5013557;28;20414;-78
2023/04/22 12:26:11;;;;;;;3.33;3.03;;;19.80;99.50;;;;;;5013978;28;20541;-78
2023/04/22 12:28:38;;;;;;;4.93;3.03;;;19.90;99.20;;;;;;5011524;28;20463;-78
2023/04/22 12:31:04;;;;;;;3.40;2.73;;;19.90;99.60;;;;;;5013652;28;20453;-79
2023/04/22 12:33:30;;;;;;;3.17;2.87;;;19.90;98.80;;;;;;5002791;28;20441;-78
2023/04/22 12:35:56;;;;;;;3.07;2.83;;;19.80;98.40;;;;;;5014836;28;20428;-75
2023/04/22 12:38:22;;;;;;;3.50;2.93;;;19.80;98.40;;;;;;5029751;28;20434;-78
2023/04/22 12:40:47;;;;;;;4.80;2.97;;;19.70;98.30;;;;;;5009049;28;20195;-79
2023/04/22 12:43:13;;;;;;;5.93;3.27;;;19.60;98.60;;;;;;4997215;28;20277;-78
2023/04/22 12:45:39;;;;;;;5.43;2.90;;;19.50;98.90;;;;;;5006630;28;20211;-78
2023/04/22 12:48:05;;;;;;;3.00;2.80;;;19.50;98.80;;;;;;5005282;28;20184;-78